createdAt,value
2017-06-12T00:01:20.418Z,7.20
2017-06-12T00:03:47.992Z,7.30
2017-06-12T00:06:15.537Z,6.63
2017-06-12T00:08:43.102Z,6.73
2017-06-12T00:11:10.781Z,6.57
2017-06-12T00:13:38.503Z,6.47
2017-06-12T00:16:06.148Z,6.67
2017-06-12T00:18:33.799Z,6.70
2017-06-12T00:21:01.422Z,7.07
2017-06-12T00:23:29.047Z,7.87
2017-06-12T00:25:56.625Z,7.43
2017-06-12T00:28:24.266Z,7.30
2017-06-12T00:30:51.866Z,7.03
2017-06-12T00:33:22.417Z,6.40
2017-06-12T00:35:52.283Z,7.90
2017-06-12T00:38:19.944Z,6.33
2017-06-12T00:40:50.585Z,6.47
2017-06-12T00:43:20.987Z,7.20
2017-06-12T00:45:53.443Z,6.70
2017-06-12T00:48:25.035Z,6.53
2017-06-12T00:50:56.023Z,7.10
2017-06-12T00:53:23.592Z,7.73
2017-06-12T00:55:51.202Z,7.37
2017-06-12T00:58:18.768Z,6.27
2017-06-12T01:00:46.349Z,7.83
2017-06-12T01:03:13.955Z,9.43
2017-06-12T01:05:44.674Z,7.53
2017-06-12T01:08:14.332Z,8.63
2017-06-12T01:10:41.966Z,7.43
2017-06-12T01:13:12.275Z,7.90
2017-06-12T01:15:42.709Z,8.60
2017-06-12T01:18:11.072Z,8.03
2017-06-12T01:20:40.414Z,8.37
2017-06-12T01:23:09.743Z,8.03
2017-06-12T01:25:37.380Z,8.00
2017-06-12T01:28:05.004Z,9.03
2017-06-12T01:30:32.615Z,8.63
2017-06-12T01:33:00.211Z,10.37
2017-06-12T01:35:27.762Z,9.50
2017-06-12T01:37:55.625Z,9.30
2017-06-12T01:40:23.209Z,10.13
2017-06-12T01:42:50.802Z,9.97
2017-06-12T01:45:18.380Z,9.97
2017-06-12T01:47:45.947Z,10.40
2017-06-12T01:50:13.537Z,10.30
2017-06-12T01:52:41.139Z,10.73
2017-06-12T01:55:10.820Z,11.07
2017-06-12T01:57:41.091Z,9.77
2017-06-12T02:00:09.759Z,10.33
2017-06-12T02:02:39.806Z,9.63
2017-06-12T02:05:08.968Z,8.70
2017-06-12T02:07:36.638Z,8.97
2017-06-12T02:10:05.718Z,8.37
2017-06-12T02:12:33.413Z,9.43
2017-06-12T02:15:03.028Z,8.23
2017-06-12T02:17:33.182Z,9.57
2017-06-12T02:20:00.897Z,11.10
2017-06-12T02:22:28.805Z,9.60
2017-06-12T02:24:58.347Z,11.00
2017-06-12T02:27:28.279Z,10.70
2017-06-12T02:29:57.638Z,10.63
2017-06-12T02:32:26.892Z,9.47
2017-06-12T02:34:57.345Z,11.83
2017-06-12T02:37:25.021Z,9.40
2017-06-12T02:39:53.535Z,8.20
2017-06-12T02:42:24.193Z,8.43
2017-06-12T02:44:54.688Z,8.60
2017-06-12T02:47:22.365Z,8.57
2017-06-12T02:49:51.545Z,9.93
2017-06-12T02:52:21.920Z,9.93
2017-06-12T02:54:51.507Z,10.13
2017-06-12T02:57:19.186Z,8.80
2017-06-12T02:59:46.777Z,9.87
2017-06-12T03:02:15.995Z,8.00
2017-06-12T03:04:45.019Z,9.50
2017-06-12T03:07:12.565Z,10.20
2017-06-12T03:09:42.474Z,10.33
2017-06-12T03:12:10.167Z,10.60
2017-06-12T03:14:40.502Z,10.17
2017-06-12T03:17:11.838Z,10.40
2017-06-12T03:19:40.773Z,10.90
2017-06-12T03:22:10.448Z,10.30
2017-06-12T03:24:38.115Z,10.60
2017-06-12T03:27:05.670Z,11.33
2017-06-12T03:29:34.907Z,11.67
2017-06-12T03:32:03.107Z,11.70
2017-06-12T03:34:32.413Z,10.43
2017-06-12T03:37:02.132Z,11.60
2017-06-12T03:39:29.850Z,12.43
2017-06-12T03:41:57.408Z,11.00
2017-06-12T03:44:26.593Z,11.13
2017-06-12T03:46:54.275Z,10.70
2017-06-12T03:49:21.847Z,11.90
2017-06-12T03:51:51.281Z,10.87
2017-06-12T03:54:18.949Z,10.47
2017-06-12T03:56:48.195Z,9.60
2017-06-12T03:59:17.354Z,10.47
2017-06-12T04:01:46.058Z,10.93
2017-06-12T04:04:15.396Z,12.03
2017-06-12T04:06:43.070Z,9.60
2017-06-12T04:09:10.661Z,10.50
2017-06-12T04:11:38.210Z,9.73
2017-06-12T04:14:05.747Z,9.87
2017-06-12T04:16:33.906Z,10.30
2017-06-12T04:19:01.450Z,10.07
2017-06-12T04:21:29.345Z,11.23
2017-06-12T04:23:56.963Z,9.93
2017-06-12T04:26:24.502Z,10.47
2017-06-12T04:28:52.171Z,9.30
2017-06-12T04:31:19.751Z,10.20
2017-06-12T04:33:47.281Z,9.63
2017-06-12T04:36:14.819Z,11.53
2017-06-12T04:38:42.394Z,10.90
2017-06-12T04:41:09.941Z,11.00
2017-06-12T04:43:37.477Z,11.10
2017-06-12T04:46:05.045Z,10.60
2017-06-12T04:48:32.583Z,12.37
2017-06-12T04:51:00.176Z,10.93
2017-06-12T04:53:27.754Z,11.70
2017-06-12T04:55:55.307Z,11.77
2017-06-12T04:58:22.866Z,10.37
2017-06-12T05:00:50.448Z,12.00
2017-06-12T05:03:17.987Z,12.30
2017-06-12T05:05:46.404Z,12.27
2017-06-12T05:08:13.973Z,10.00
2017-06-12T05:10:41.511Z,9.73
2017-06-12T05:13:09.078Z,10.80
2017-06-12T05:15:36.689Z,11.37
2017-06-12T05:18:04.229Z,10.23
2017-06-12T05:20:31.765Z,11.30
2017-06-12T05:22:59.369Z,10.37
2017-06-12T05:25:26.906Z,9.47
2017-06-12T05:27:54.457Z,11.10
2017-06-12T05:30:22.158Z,10.67
2017-06-12T05:32:49.697Z,10.40
2017-06-12T05:35:17.230Z,9.63
2017-06-12T05:37:44.833Z,10.40
2017-06-12T05:40:12.364Z,10.20
2017-06-12T05:42:39.920Z,10.10
2017-06-12T05:45:07.505Z,10.70
2017-06-12T05:47:35.042Z,8.50
2017-06-12T05:50:02.626Z,9.93
2017-06-12T05:52:30.205Z,9.50
2017-06-12T05:54:57.738Z,8.90
2017-06-12T05:57:25.284Z,10.50
2017-06-12T05:59:52.861Z,9.70
2017-06-12T06:02:20.433Z,8.40
2017-06-12T06:04:47.983Z,9.57
2017-06-12T06:07:15.528Z,8.83
2017-06-12T06:09:43.117Z,8.57
2017-06-12T06:12:10.656Z,8.27
2017-06-12T06:14:38.189Z,7.80
2017-06-12T06:17:05.746Z,8.50
2017-06-12T06:19:33.287Z,9.07
2017-06-12T06:22:00.830Z,11.07
2017-06-12T06:24:28.396Z,11.33
2017-06-12T06:26:55.934Z,9.97
2017-06-12T06:29:23.483Z,11.50
2017-06-12T06:31:51.090Z,12.17
2017-06-12T06:34:18.634Z,11.30
2017-06-12T06:36:46.181Z,9.90
2017-06-12T06:39:13.765Z,11.53
2017-06-12T06:41:41.298Z,9.80
2017-06-12T06:44:08.834Z,10.13
2017-06-12T06:46:36.422Z,10.63
2017-06-12T06:49:03.970Z,10.93
2017-06-12T06:51:31.512Z,10.70
2017-06-12T06:53:59.097Z,10.47
2017-06-12T06:56:26.633Z,10.17
2017-06-12T06:58:54.217Z,10.00
2017-06-12T07:01:21.825Z,9.93
2017-06-12T07:03:49.365Z,8.97
2017-06-12T07:06:16.902Z,9.90
2017-06-12T07:08:44.474Z,9.10
2017-06-12T07:11:12.048Z,8.60
2017-06-12T07:13:39.586Z,9.07
2017-06-12T07:16:07.153Z,9.43
2017-06-12T07:18:34.689Z,9.27
2017-06-12T07:21:02.219Z,8.73
2017-06-12T07:23:29.789Z,11.60
2017-06-12T07:25:57.317Z,9.53
2017-06-12T07:28:24.874Z,7.57
2017-06-12T07:30:52.446Z,8.33
2017-06-12T07:33:19.974Z,9.80
2017-06-12T07:35:47.507Z,11.83
2017-06-12T07:38:15.095Z,10.90
2017-06-12T07:40:42.622Z,8.90
2017-06-12T07:43:10.158Z,9.10
2017-06-12T07:45:37.741Z,9.30
2017-06-12T07:48:05.272Z,8.43
2017-06-12T07:50:32.809Z,8.90
2017-06-12T07:53:00.377Z,8.67
2017-06-12T07:55:27.913Z,9.10
2017-06-12T07:57:55.454Z,8.43
2017-06-12T08:00:23.189Z,8.73
2017-06-12T08:02:50.741Z,8.20
2017-06-12T08:05:18.279Z,7.27
2017-06-12T08:07:45.847Z,6.90
2017-06-12T08:10:13.386Z,8.60
2017-06-12T08:12:40.949Z,7.23
2017-06-12T08:15:08.507Z,7.30
2017-06-12T08:17:36.047Z,7.23
2017-06-12T08:20:03.581Z,7.40
2017-06-12T08:22:31.153Z,7.57
2017-06-12T08:24:58.697Z,8.00
2017-06-12T08:27:26.238Z,8.20
2017-06-12T08:29:53.825Z,6.77
2017-06-12T08:32:21.394Z,6.77
2017-06-12T08:34:48.925Z,6.83
2017-06-12T08:37:16.457Z,6.27
2017-06-12T08:39:44.026Z,5.27
2017-06-12T08:42:11.554Z,5.13
2017-06-12T08:44:39.087Z,6.47
2017-06-12T08:47:06.663Z,5.50
2017-06-12T08:49:34.194Z,5.40
2017-06-12T08:52:01.734Z,4.97
2017-06-12T08:54:29.315Z,4.50
2017-06-12T08:56:56.903Z,4.40
2017-06-12T08:59:24.433Z,4.57
2017-06-12T09:01:51.997Z,4.93
2017-06-12T09:04:19.527Z,4.53
2017-06-12T09:06:47.058Z,5.27
2017-06-12T09:09:14.642Z,4.40
2017-06-12T09:11:42.182Z,5.23
2017-06-12T09:14:09.713Z,5.10
2017-06-12T09:16:37.285Z,4.80
2017-06-12T09:19:04.822Z,5.00
2017-06-12T09:21:32.353Z,4.90
2017-06-12T09:23:59.917Z,4.40
2017-06-12T09:26:27.829Z,4.43
2017-06-12T09:28:55.797Z,3.90
2017-06-12T09:31:23.376Z,4.60
2017-06-12T09:33:50.926Z,4.67
2017-06-12T09:36:18.503Z,4.37
2017-06-12T09:38:46.078Z,4.10
2017-06-12T09:41:13.605Z,4.37
2017-06-12T09:43:41.146Z,3.50
2017-06-12T09:46:08.722Z,4.33
2017-06-12T09:48:36.259Z,4.17
2017-06-12T09:51:04.017Z,6.53
2017-06-12T09:53:31.618Z,5.00
2017-06-12T09:55:59.505Z,4.20
2017-06-12T09:58:27.044Z,4.17
2017-06-12T10:00:54.618Z,4.87
2017-06-12T10:03:22.151Z,4.23
2017-06-12T10:05:49.683Z,4.37
2017-06-12T10:08:17.652Z,4.10
2017-06-12T10:10:45.186Z,4.50
2017-06-12T10:13:12.726Z,4.43
2017-06-12T10:15:40.287Z,5.00
2017-06-12T10:18:07.824Z,4.73
2017-06-12T10:20:35.358Z,4.13
2017-06-12T10:23:02.919Z,4.00
2017-06-12T10:25:30.459Z,4.60
2017-06-12T10:27:58.004Z,4.50
2017-06-12T10:30:25.714Z,4.40
2017-06-12T10:32:53.292Z,4.50
2017-06-12T10:35:21.053Z,4.20
2017-06-12T10:37:48.945Z,4.47
2017-06-12T10:40:16.485Z,4.77
2017-06-12T10:42:44.056Z,5.07
2017-06-12T10:45:11.632Z,4.60
2017-06-12T10:47:39.166Z,4.43
2017-06-12T10:50:06.702Z,4.67
2017-06-12T10:52:34.274Z,4.80
2017-06-12T10:55:01.810Z,4.60
2017-06-12T10:57:29.340Z,4.13
2017-06-12T10:59:56.926Z,4.70
2017-06-12T11:02:24.490Z,4.47
2017-06-12T11:04:52.310Z,4.10
2017-06-12T11:07:19.849Z,5.10
2017-06-12T11:09:47.422Z,4.10
2017-06-12T11:12:14.949Z,4.40
2017-06-12T11:14:42.478Z,3.80
2017-06-12T11:17:10.046Z,4.30
2017-06-12T11:19:37.868Z,4.17
2017-06-12T11:22:05.399Z,4.80
2017-06-12T11:24:38.592Z,5.40
2017-06-12T11:27:06.136Z,5.20
2017-06-12T11:29:37.399Z,5.00
2017-06-12T11:32:08.338Z,5.20
2017-06-12T11:34:35.869Z,5.43
2017-06-12T11:37:03.417Z,4.33
2017-06-12T11:39:30.989Z,4.23
2017-06-12T11:41:58.525Z,4.50
2017-06-12T11:44:26.060Z,5.00
2017-06-12T11:46:53.629Z,4.50
2017-06-12T11:49:21.172Z,4.80
2017-06-12T11:51:48.714Z,4.40
2017-06-12T11:54:16.269Z,3.80
2017-06-12T11:56:44.165Z,3.87
2017-06-12T11:59:11.702Z,4.90
2017-06-12T12:01:39.311Z,3.93
2017-06-12T12:04:06.854Z,5.60
2017-06-12T12:06:34.390Z,5.20
2017-06-12T12:09:02.002Z,4.30
2017-06-12T12:11:31.066Z,4.03
2017-06-12T12:13:58.597Z,3.97
2017-06-12T12:16:26.194Z,3.80
2017-06-12T12:18:53.801Z,4.43
2017-06-12T12:21:21.332Z,4.80
2017-06-12T12:23:48.928Z,4.50
2017-06-12T12:26:16.458Z,4.77
2017-06-12T12:28:44.289Z,4.20
2017-06-12T12:31:11.851Z,4.80
2017-06-12T12:33:39.608Z,3.80
2017-06-12T12:36:07.138Z,3.80
2017-06-12T12:38:34.746Z,4.80
2017-06-12T12:41:02.279Z,4.60
2017-06-12T12:43:29.807Z,4.50
2017-06-12T12:45:58.159Z,4.57
2017-06-12T12:48:25.686Z,4.60
2017-06-12T12:50:53.490Z,3.77
2017-06-12T12:53:21.067Z,4.40
2017-06-12T12:55:48.598Z,4.17
2017-06-12T12:58:16.175Z,3.97
2017-06-12T13:00:43.867Z,4.70
2017-06-12T13:03:11.423Z,4.40
2017-06-12T13:05:38.958Z,4.10
2017-06-12T13:08:06.561Z,4.40
2017-06-12T13:10:34.114Z,4.90
2017-06-12T13:13:01.678Z,4.20
2017-06-12T13:15:29.553Z,4.00
2017-06-12T13:17:57.087Z,4.33
2017-06-12T13:20:24.613Z,4.00
2017-06-12T13:22:52.298Z,4.53
2017-06-12T13:25:19.841Z,4.53
2017-06-12T13:27:47.408Z,4.67
2017-06-12T13:30:15.202Z,4.40
2017-06-12T13:32:42.750Z,4.27
2017-06-12T13:35:10.308Z,4.60
2017-06-12T13:37:38.219Z,4.43
2017-06-12T13:40:05.763Z,4.13
2017-06-12T13:42:33.305Z,4.20
2017-06-12T13:45:00.879Z,4.00
2017-06-12T13:47:28.457Z,5.10
2017-06-12T13:49:55.995Z,4.40
2017-06-12T13:52:23.611Z,4.13
2017-06-12T13:54:51.421Z,4.50
2017-06-12T13:57:19.227Z,4.10
2017-06-12T13:59:46.796Z,5.07
2017-06-12T14:02:14.733Z,4.40
2017-06-12T14:04:42.377Z,4.40
2017-06-12T14:07:09.904Z,3.80
2017-06-12T14:09:37.679Z,4.43
2017-06-12T14:12:05.345Z,4.60
2017-06-12T14:14:32.890Z,4.57
2017-06-12T14:17:00.577Z,5.83
2017-06-12T14:19:28.560Z,4.03
2017-06-12T14:21:56.098Z,3.93
2017-06-12T14:24:23.661Z,3.97
2017-06-12T14:26:51.347Z,3.83
2017-06-12T14:29:19.142Z,5.33
2017-06-12T14:31:47.205Z,4.43
2017-06-12T14:34:14.771Z,4.00
2017-06-12T14:36:43.102Z,4.73
2017-06-12T14:39:10.670Z,4.00
2017-06-12T14:41:38.209Z,3.40
2017-06-12T14:44:06.069Z,4.57
2017-06-12T14:46:33.628Z,4.50
2017-06-12T14:49:01.437Z,4.27
2017-06-12T14:51:29.242Z,4.10
2017-06-12T14:53:56.837Z,4.10
2017-06-12T14:56:24.376Z,4.17
2017-06-12T14:58:52.513Z,4.10
2017-06-12T15:01:20.093Z,4.40
2017-06-12T15:03:47.621Z,4.67
2017-06-12T15:06:15.184Z,4.53
2017-06-12T15:08:42.753Z,3.30
2017-06-12T15:11:10.291Z,4.10
2017-06-12T15:13:37.844Z,4.20
2017-06-12T15:16:05.450Z,3.90
2017-06-12T15:18:33.039Z,4.43
2017-06-12T15:21:00.569Z,4.90
2017-06-12T15:23:28.148Z,3.90
2017-06-12T15:25:55.695Z,4.30
2017-06-12T15:28:23.618Z,3.93
2017-06-12T15:30:51.190Z,4.97
2017-06-12T15:33:18.786Z,4.63
2017-06-12T15:35:46.317Z,6.77
2017-06-12T15:38:13.886Z,3.67
2017-06-12T15:40:41.413Z,4.40
2017-06-12T15:43:08.959Z,4.10
2017-06-12T15:45:36.525Z,4.07
2017-06-12T15:48:04.059Z,4.70
2017-06-12T15:50:31.585Z,4.77
2017-06-12T15:52:59.182Z,4.80
2017-06-12T15:55:26.714Z,5.27
2017-06-12T15:57:54.252Z,4.00
2017-06-12T16:00:21.846Z,5.00
2017-06-12T16:02:49.383Z,4.90
2017-06-12T16:05:16.914Z,6.53
2017-06-12T16:07:44.497Z,5.90
2017-06-12T16:10:12.080Z,4.80
2017-06-12T16:12:39.856Z,4.83
2017-06-12T16:15:07.426Z,5.03
2017-06-12T16:17:34.990Z,4.80
2017-06-12T16:20:02.522Z,5.30
2017-06-12T16:22:30.098Z,6.47
2017-06-12T16:24:57.656Z,6.07
2017-06-12T16:27:25.189Z,6.40
2017-06-12T16:29:52.754Z,5.70
2017-06-12T16:32:20.321Z,6.70
2017-06-12T16:34:47.909Z,5.97
2017-06-12T16:37:15.647Z,5.00
2017-06-12T16:39:43.227Z,4.80
2017-06-12T16:42:11.330Z,5.13
2017-06-12T16:44:39.682Z,4.00
2017-06-12T16:47:07.252Z,4.13
2017-06-12T16:50:32.357Z,4.33
2017-06-12T16:53:01.864Z,4.50
2017-06-12T16:55:29.785Z,4.43
2017-06-12T16:57:57.560Z,5.23
2017-06-12T17:00:25.151Z,5.43
2017-06-12T17:02:52.690Z,4.60
2017-06-12T17:05:20.218Z,5.50
2017-06-12T17:07:47.805Z,5.30
2017-06-12T17:10:15.329Z,5.60
2017-06-12T17:12:42.865Z,5.20
2017-06-12T17:15:10.437Z,4.97
2017-06-12T17:17:37.964Z,5.50
2017-06-12T17:20:05.506Z,6.33
2017-06-12T17:22:33.098Z,5.00
2017-06-12T17:25:00.651Z,5.10
2017-06-12T17:27:28.229Z,5.73
2017-06-12T17:29:55.807Z,5.43
2017-06-12T17:32:23.398Z,7.70
2017-06-12T17:34:50.947Z,7.60
2017-06-12T17:37:18.497Z,8.23
2017-06-12T17:39:46.069Z,7.63
2017-06-12T17:42:13.626Z,8.20
2017-06-12T17:44:41.174Z,7.67
2017-06-12T17:47:08.791Z,7.70
2017-06-12T17:49:36.413Z,7.00
2017-06-12T17:52:04.049Z,7.37
2017-06-12T17:54:31.655Z,7.70
2017-06-12T17:57:00.294Z,7.53
2017-06-12T17:59:27.837Z,7.23
2017-06-12T18:01:56.168Z,7.27
2017-06-12T18:04:23.692Z,7.13
2017-06-12T18:06:51.349Z,6.40
2017-06-12T18:09:18.978Z,6.87
2017-06-12T18:11:46.558Z,7.47
2017-06-12T18:14:15.286Z,7.90
2017-06-12T18:16:42.922Z,7.13
2017-06-12T18:19:10.803Z,8.27
2017-06-12T18:21:38.500Z,8.83
2017-06-12T18:24:07.661Z,9.43
2017-06-12T18:26:35.722Z,9.97
2017-06-12T18:29:03.393Z,10.50
2017-06-12T18:31:31.172Z,13.47
2017-06-12T18:34:00.246Z,24.63
2017-06-12T18:36:28.080Z,15.23
2017-06-12T18:38:55.855Z,12.70
2017-06-12T18:41:23.612Z,12.63
2017-06-12T18:43:51.750Z,13.07
2017-06-12T18:46:19.534Z,11.43
2017-06-12T18:48:47.326Z,10.53
2017-06-12T18:51:15.202Z,11.13
2017-06-12T18:53:43.182Z,10.13
2017-06-12T18:56:10.921Z,8.87
2017-06-12T18:58:38.729Z,9.20
2017-06-12T19:01:06.499Z,9.97
2017-06-12T19:03:35.043Z,9.57
2017-06-12T19:06:02.814Z,8.60
2017-06-12T19:08:30.631Z,7.80
2017-06-12T19:10:58.555Z,8.47
2017-06-12T19:13:26.343Z,10.60
2017-06-12T19:15:54.133Z,9.47
2017-06-12T19:18:21.899Z,6.77
2017-06-12T19:20:49.782Z,6.10
2017-06-12T19:23:17.627Z,7.03
2017-06-12T19:25:45.478Z,7.53
2017-06-12T19:28:13.323Z,10.17
2017-06-12T19:30:41.348Z,10.50
2017-06-12T19:33:09.138Z,9.47
2017-06-12T19:35:36.831Z,9.70
2017-06-12T19:38:04.579Z,9.10
2017-06-12T19:40:32.286Z,11.40
2017-06-12T19:42:59.978Z,9.30
2017-06-12T19:45:28.019Z,10.23
2017-06-12T19:47:55.625Z,9.83
2017-06-12T19:50:23.263Z,9.83
2017-06-12T19:52:50.901Z,9.93
2017-06-12T19:55:18.790Z,10.33
2017-06-12T19:57:46.714Z,7.57
2017-06-12T20:00:14.687Z,8.03
2017-06-12T20:02:42.263Z,7.00
2017-06-12T20:05:10.182Z,8.40
2017-06-12T20:07:37.826Z,7.77
2017-06-12T20:10:05.398Z,7.47
2017-06-12T20:12:32.949Z,7.77
2017-06-12T20:15:00.522Z,7.37
2017-06-12T20:17:28.076Z,7.27
2017-06-12T20:19:55.630Z,7.70
2017-06-12T20:22:23.207Z,7.23
2017-06-12T20:24:50.750Z,8.70
2017-06-12T20:27:18.296Z,8.67
2017-06-12T20:29:45.883Z,7.70
2017-06-12T20:32:14.293Z,9.80
2017-06-12T20:34:41.833Z,10.40
2017-06-12T20:37:09.381Z,11.40
2017-06-12T20:39:36.962Z,9.63
2017-06-12T20:42:04.805Z,9.00
2017-06-12T20:44:32.353Z,7.00
2017-06-12T20:46:59.931Z,7.50
2017-06-12T20:49:27.486Z,5.90
2017-06-12T20:51:55.009Z,6.43
2017-06-12T20:54:23.467Z,5.90
2017-06-12T20:56:50.997Z,5.90
2017-06-12T20:59:18.521Z,6.20
2017-06-12T21:01:46.102Z,5.50
2017-06-12T21:04:13.646Z,4.70
2017-06-12T21:06:41.173Z,6.00
2017-06-12T21:09:08.761Z,6.60
2017-06-12T21:11:36.318Z,7.23
2017-06-12T21:14:03.854Z,6.37
2017-06-12T21:16:31.453Z,6.50
2017-06-12T21:18:58.986Z,7.07
2017-06-12T21:21:26.520Z,6.50
2017-06-12T21:23:54.106Z,6.10
2017-06-12T21:26:21.910Z,6.97
2017-06-12T21:28:49.514Z,7.90
2017-06-12T21:31:17.086Z,8.67
2017-06-12T21:33:44.615Z,7.80
2017-06-12T21:36:12.180Z,8.57
2017-06-12T21:38:39.752Z,9.53
2017-06-12T21:41:07.286Z,7.70
2017-06-12T21:43:34.830Z,6.97
2017-06-12T21:46:02.436Z,9.00
2017-06-12T21:48:29.965Z,6.27
2017-06-12T21:50:57.502Z,5.93
2017-06-12T21:53:25.086Z,6.50
2017-06-12T21:55:52.620Z,7.10
2017-06-12T21:58:20.153Z,5.97
2017-06-12T22:00:47.742Z,6.37
2017-06-12T22:03:15.282Z,6.83
2017-06-12T22:05:42.837Z,7.37
2017-06-12T22:08:10.403Z,7.30
2017-06-12T22:10:37.958Z,7.40
2017-06-12T22:13:05.485Z,6.50
2017-06-12T22:15:33.050Z,7.63
2017-06-12T22:18:00.577Z,6.50
2017-06-12T22:20:28.122Z,6.63
2017-06-12T22:22:55.682Z,5.93
2017-06-12T22:25:23.230Z,7.13
2017-06-12T22:27:50.798Z,7.10
2017-06-12T22:30:19.269Z,6.83
2017-06-12T22:32:46.815Z,6.53
2017-06-12T22:35:14.354Z,6.80
2017-06-12T22:37:41.926Z,7.50
2017-06-12T22:40:09.465Z,6.70
2017-06-12T22:42:37.042Z,6.90
2017-06-12T22:45:04.614Z,6.77
2017-06-12T22:47:32.161Z,6.87
2017-06-12T22:49:59.708Z,7.27
2017-06-12T22:52:27.304Z,6.53
2017-06-12T22:54:54.839Z,6.30
2017-06-12T22:57:22.368Z,6.47
2017-06-12T22:59:49.941Z,5.90
2017-06-12T23:02:17.509Z,5.73
2017-06-12T23:04:45.050Z,6.33
2017-06-12T23:07:12.576Z,6.10
2017-06-12T23:09:40.151Z,5.73
2017-06-12T23:12:07.912Z,5.93
2017-06-12T23:14:35.815Z,6.73
2017-06-12T23:17:03.383Z,5.87
2017-06-12T23:19:30.913Z,6.30
2017-06-12T23:21:58.448Z,6.07
2017-06-12T23:24:26.042Z,6.47
2017-06-12T23:26:53.591Z,6.63
2017-06-12T23:29:21.130Z,6.90
2017-06-12T23:31:48.699Z,5.80
2017-06-12T23:34:16.233Z,6.23
2017-06-12T23:36:43.777Z,5.80
2017-06-12T23:39:11.342Z,6.70
2017-06-12T23:41:38.878Z,6.83
2017-06-12T23:44:06.425Z,6.17
2017-06-12T23:46:34.020Z,7.10
2017-06-12T23:49:01.614Z,7.03
2017-06-12T23:51:29.147Z,6.77
2017-06-12T23:53:56.722Z,7.93
2017-06-12T23:56:24.257Z,6.17
2017-06-12T23:58:51.844Z,6.80
